sensor_id;sensor_type;location;lat;lon;timestamp;P1;durP1;ratioP1;P2;durP2;ratioP2
21258;SDS011;10787;53.364;-1.480;2022-08-21T00:01:16;6.72;;;2.38;;
21258;SDS011;10787;53.364;-1.480;2022-08-21T00:03:44;9.70;;;2.75;;
21258;SDS011;10787;53.364;-1.480;2022-08-21T00:06:11;9.02;;;2.88;;
21258;SDS011;10787;53.364;-1.480;2022-08-21T00:08:36;10.35;;;2.70;;
21258;SDS011;10787;53.364;-1.480;2022-08-21T00:11:03;10.65;;;2.60;;
21258;SDS011;10787;53.364;-1.480;2022-08-21T00:13:29;11.55;;;3.35;;
21258;SDS011;10787;53.364;-1.480;2022-08-21T00:15:55;8.07;;;2.78;;
21258;SDS011;10787;53.364;-1.480;2022-08-21T00:18:22;7.55;;;3.25;;
21258;SDS011;10787;53.364;-1.480;2022-08-21T00:20:47;7.53;;;2.75;;
21258;SDS011;10787;53.364;-1.480;2022-08-21T00:23:14;8.38;;;2.60;;
21258;SDS011;10787;53.364;-1.480;2022-08-21T00:25:41;9.23;;;2.72;;
21258;SDS011;10787;53.364;-1.480;2022-08-21T00:28:08;9.95;;;2.80;;
21258;SDS011;10787;53.364;-1.480;2022-08-21T00:30:35;9.57;;;2.67;;
21258;SDS011;10787;53.364;-1.480;2022-08-21T00:33:02;9.07;;;2.92;;
21258;SDS011;10787;53.364;-1.480;2022-08-21T00:35:34;8.60;;;2.65;;
21258;SDS011;10787;53.364;-1.480;2022-08-21T00:38:04;9.98;;;2.60;;
21258;SDS011;10787;53.364;-1.480;2022-08-21T00:40:33;9.23;;;2.80;;
21258;SDS011;10787;53.364;-1.480;2022-08-21T00:43:02;12.20;;;2.95;;
21258;SDS011;10787;53.364;-1.480;2022-08-21T00:45:30;8.32;;;2.70;;
21258;SDS011;10787;53.364;-1.480;2022-08-21T00:47:58;8.32;;;3.15;;
21258;SDS011;10787;53.364;-1.480;2022-08-21T00:50:26;9.02;;;3.20;;
21258;SDS011;10787;53.364;-1.480;2022-08-21T00:52:57;7.97;;;3.05;;
21258;SDS011;10787;53.364;-1.480;2022-08-21T00:55:24;9.93;;;3.47;;
21258;SDS011;10787;53.364;-1.480;2022-08-21T00:57:52;9.20;;;3.17;;
21258;SDS011;10787;53.364;-1.480;2022-08-21T01:00:26;9.73;;;3.15;;
21258;SDS011;10787;53.364;-1.480;2022-08-21T01:02:57;11.82;;;3.17;;
21258;SDS011;10787;53.364;-1.480;2022-08-21T01:05:24;9.13;;;3.10;;
21258;SDS011;10787;53.364;-1.480;2022-08-21T01:07:50;8.95;;;2.95;;
21258;SDS011;10787;53.364;-1.480;2022-08-21T01:10:16;10.60;;;3.00;;
21258;SDS011;10787;53.364;-1.480;2022-08-21T01:12:43;10.57;;;3.08;;
21258;SDS011;10787;53.364;-1.480;2022-08-21T01:15:09;10.35;;;2.97;;
21258;SDS011;10787;53.364;-1.480;2022-08-21T01:17:39;11.25;;;3.08;;
21258;SDS011;10787;53.364;-1.480;2022-08-21T01:20:08;10.18;;;3.28;;
21258;SDS011;10787;53.364;-1.480;2022-08-21T01:22:36;9.23;;;3.20;;
21258;SDS011;10787;53.364;-1.480;2022-08-21T01:25:08;7.75;;;2.83;;
21258;SDS011;10787;53.364;-1.480;2022-08-21T01:27:36;10.00;;;3.25;;
21258;SDS011;10787;53.364;-1.480;2022-08-21T01:30:19;12.43;;;3.15;;
21258;SDS011;10787;53.364;-1.480;2022-08-21T01:32:48;13.18;;;3.30;;
21258;SDS011;10787;53.364;-1.480;2022-08-21T01:35:17;8.70;;;2.90;;
21258;SDS011;10787;53.364;-1.480;2022-08-21T01:37:43;9.88;;;3.03;;
21258;SDS011;10787;53.364;-1.480;2022-08-21T01:40:11;12.43;;;3.17;;
21258;SDS011;10787;53.364;-1.480;2022-08-21T01:42:38;11.10;;;3.25;;
21258;SDS011;10787;53.364;-1.480;2022-08-21T01:45:05;9.05;;;2.90;;
21258;SDS011;10787;53.364;-1.480;2022-08-21T01:47:31;10.25;;;3.60;;
21258;SDS011;10787;53.364;-1.480;2022-08-21T01:49:58;9.13;;;3.10;;
21258;SDS011;10787;53.364;-1.480;2022-08-21T01:52:24;9.18;;;3.15;;
21258;SDS011;10787;53.364;-1.480;2022-08-21T01:54:51;8.77;;;2.97;;
21258;SDS011;10787;53.364;-1.480;2022-08-21T01:57:17;11.65;;;3.25;;
21258;SDS011;10787;53.364;-1.480;2022-08-21T01:59:43;11.80;;;3.15;;
21258;SDS011;10787;53.364;-1.480;2022-08-21T02:02:09;9.70;;;2.95;;
21258;SDS011;10787;53.364;-1.480;2022-08-21T02:04:35;11.05;;;3.70;;
21258;SDS011;10787;53.364;-1.480;2022-08-21T02:07:00;8.88;;;3.08;;
21258;SDS011;10787;53.364;-1.480;2022-08-21T02:09:27;8.23;;;3.17;;
21258;SDS011;10787;53.364;-1.480;2022-08-21T02:11:53;7.47;;;3.03;;
21258;SDS011;10787;53.364;-1.480;2022-08-21T02:14:19;11.65;;;3.20;;
21258;SDS011;10787;53.364;-1.480;2022-08-21T02:16:45;12.07;;;3.30;;
21258;SDS011;10787;53.364;-1.480;2022-08-21T02:19:13;12.25;;;3.20;;
21258;SDS011;10787;53.364;-1.480;2022-08-21T02:21:41;9.02;;;3.10;;
21258;SDS011;10787;53.364;-1.480;2022-08-21T02:24:08;7.78;;;3.20;;
21258;SDS011;10787;53.364;-1.480;2022-08-21T02:26:35;12.45;;;3.40;;
21258;SDS011;10787;53.364;-1.480;2022-08-21T02:29:02;11.13;;;3.17;;
21258;SDS011;10787;53.364;-1.480;2022-08-21T02:31:29;8.93;;;3.20;;
21258;SDS011;10787;53.364;-1.480;2022-08-21T02:33:54;10.23;;;3.13;;
21258;SDS011;10787;53.364;-1.480;2022-08-21T02:36:21;10.98;;;3.35;;
21258;SDS011;10787;53.364;-1.480;2022-08-21T02:38:47;10.32;;;3.38;;
21258;SDS011;10787;53.364;-1.480;2022-08-21T02:41:15;9.57;;;3.40;;
21258;SDS011;10787;53.364;-1.480;2022-08-21T02:43:44;10.55;;;3.50;;
21258;SDS011;10787;53.364;-1.480;2022-08-21T02:46:11;10.32;;;3.20;;
21258;SDS011;10787;53.364;-1.480;2022-08-21T02:48:38;10.85;;;3.10;;
21258;SDS011;10787;53.364;-1.480;2022-08-21T02:51:06;10.05;;;3.25;;
21258;SDS011;10787;53.364;-1.480;2022-08-21T02:53:35;9.15;;;3.15;;
21258;SDS011;10787;53.364;-1.480;2022-08-21T02:56:03;8.85;;;3.42;;
21258;SDS011;10787;53.364;-1.480;2022-08-21T02:58:32;8.15;;;3.10;;
21258;SDS011;10787;53.364;-1.480;2022-08-21T03:01:00;11.63;;;3.33;;
21258;SDS011;10787;53.364;-1.480;2022-08-21T03:03:27;9.27;;;3.60;;
21258;SDS011;10787;53.364;-1.480;2022-08-21T03:05:53;12.35;;;3.28;;
21258;SDS011;10787;53.364;-1.480;2022-08-21T03:08:19;7.53;;;3.30;;
21258;SDS011;10787;53.364;-1.480;2022-08-21T03:10:47;11.48;;;3.50;;
21258;SDS011;10787;53.364;-1.480;2022-08-21T03:13:15;12.30;;;3.40;;
21258;SDS011;10787;53.364;-1.480;2022-08-21T03:15:43;8.05;;;3.70;;
21258;SDS011;10787;53.364;-1.480;2022-08-21T03:18:10;10.07;;;3.65;;
21258;SDS011;10787;53.364;-1.480;2022-08-21T03:20:37;8.43;;;3.42;;
21258;SDS011;10787;53.364;-1.480;2022-08-21T03:23:04;10.65;;;3.00;;
21258;SDS011;10787;53.364;-1.480;2022-08-21T03:25:31;10.32;;;2.97;;
21258;SDS011;10787;53.364;-1.480;2022-08-21T03:27:58;11.23;;;3.50;;
21258;SDS011;10787;53.364;-1.480;2022-08-21T03:30:29;14.95;;;3.67;;
21258;SDS011;10787;53.364;-1.480;2022-08-21T03:32:56;12.07;;;3.90;;
21258;SDS011;10787;53.364;-1.480;2022-08-21T03:35:24;10.77;;;3.42;;
21258;SDS011;10787;53.364;-1.480;2022-08-21T03:37:51;13.75;;;3.90;;
21258;SDS011;10787;53.364;-1.480;2022-08-21T03:40:18;9.57;;;3.55;;
21258;SDS011;10787;53.364;-1.480;2022-08-21T03:42:45;12.68;;;3.65;;
21258;SDS011;10787;53.364;-1.480;2022-08-21T03:45:13;10.00;;;3.40;;
21258;SDS011;10787;53.364;-1.480;2022-08-21T03:47:54;10.05;;;3.72;;
21258;SDS011;10787;53.364;-1.480;2022-08-21T03:50:23;11.63;;;3.38;;
21258;SDS011;10787;53.364;-1.480;2022-08-21T03:52:50;8.77;;;3.17;;
21258;SDS011;10787;53.364;-1.480;2022-08-21T03:55:16;11.23;;;3.40;;
21258;SDS011;10787;53.364;-1.480;2022-08-21T03:57:41;8.80;;;3.20;;
21258;SDS011;10787;53.364;-1.480;2022-08-21T04:00:07;8.38;;;3.13;;
21258;SDS011;10787;53.364;-1.480;2022-08-21T04:02:36;11.35;;;3.67;;
21258;SDS011;10787;53.364;-1.480;2022-08-21T04:05:03;10.25;;;3.65;;
21258;SDS011;10787;53.364;-1.480;2022-08-21T04:07:29;12.55;;;3.72;;
21258;SDS011;10787;53.364;-1.480;2022-08-21T04:09:55;11.02;;;3.92;;
21258;SDS011;10787;53.364;-1.480;2022-08-21T04:12:21;12.48;;;4.03;;
21258;SDS011;10787;53.364;-1.480;2022-08-21T04:14:47;12.25;;;4.20;;
21258;SDS011;10787;53.364;-1.480;2022-08-21T04:17:13;13.70;;;4.43;;
21258;SDS011;10787;53.364;-1.480;2022-08-21T04:19:38;10.23;;;3.90;;
21258;SDS011;10787;53.364;-1.480;2022-08-21T04:22:04;11.60;;;4.00;;
21258;SDS011;10787;53.364;-1.480;2022-08-21T04:24:30;14.13;;;3.95;;
21258;SDS011;10787;53.364;-1.480;2022-08-21T04:26:56;11.30;;;3.55;;
21258;SDS011;10787;53.364;-1.480;2022-08-21T04:29:22;11.63;;;3.67;;
21258;SDS011;10787;53.364;-1.480;2022-08-21T04:31:47;11.65;;;4.10;;
21258;SDS011;10787;53.364;-1.480;2022-08-21T04:34:13;12.02;;;4.32;;
21258;SDS011;10787;53.364;-1.480;2022-08-21T04:36:39;11.00;;;4.50;;
21258;SDS011;10787;53.364;-1.480;2022-08-21T04:39:05;10.60;;;4.55;;
21258;SDS011;10787;53.364;-1.480;2022-08-21T04:41:31;13.90;;;4.50;;
21258;SDS011;10787;53.364;-1.480;2022-08-21T04:43:57;10.80;;;4.35;;
21258;SDS011;10787;53.364;-1.480;2022-08-21T04:46:23;11.65;;;4.80;;
21258;SDS011;10787;53.364;-1.480;2022-08-21T04:48:49;10.63;;;4.10;;
21258;SDS011;10787;53.364;-1.480;2022-08-21T04:51:16;11.60;;;4.28;;
21258;SDS011;10787;53.364;-1.480;2022-08-21T04:53:52;14.43;;;5.05;;
21258;SDS011;10787;53.364;-1.480;2022-08-21T04:58:58;7.80;;;4.53;;
21258;SDS011;10787;53.364;-1.480;2022-08-21T05:01:29;12.48;;;5.03;;
21258;SDS011;10787;53.364;-1.480;2022-08-21T05:03:58;11.27;;;4.50;;
21258;SDS011;10787;53.364;-1.480;2022-08-21T05:06:25;16.05;;;5.20;;
21258;SDS011;10787;53.364;-1.480;2022-08-21T05:08:55;10.80;;;4.82;;
21258;SDS011;10787;53.364;-1.480;2022-08-21T05:11:22;11.18;;;4.57;;
21258;SDS011;10787;53.364;-1.480;2022-08-21T05:13:49;16.20;;;5.18;;
21258;SDS011;10787;53.364;-1.480;2022-08-21T05:16:15;12.45;;;4.80;;
21258;SDS011;10787;53.364;-1.480;2022-08-21T05:18:41;13.00;;;4.72;;
21258;SDS011;10787;53.364;-1.480;2022-08-21T05:21:08;11.98;;;5.30;;
21258;SDS011;10787;53.364;-1.480;2022-08-21T05:23:34;12.40;;;5.05;;
21258;SDS011;10787;53.364;-1.480;2022-08-21T05:26:00;11.55;;;4.65;;
21258;SDS011;10787;53.364;-1.480;2022-08-21T05:28:26;12.10;;;5.10;;
21258;SDS011;10787;53.364;-1.480;2022-08-21T05:30:52;12.35;;;5.10;;
21258;SDS011;10787;53.364;-1.480;2022-08-21T05:33:19;14.27;;;4.90;;
21258;SDS011;10787;53.364;-1.480;2022-08-21T05:35:44;16.80;;;5.45;;
21258;SDS011;10787;53.364;-1.480;2022-08-21T05:38:10;13.15;;;4.80;;
21258;SDS011;10787;53.364;-1.480;2022-08-21T05:40:36;11.90;;;5.57;;
21258;SDS011;10787;53.364;-1.480;2022-08-21T05:43:02;16.73;;;4.97;;
21258;SDS011;10787;53.364;-1.480;2022-08-21T05:45:32;13.02;;;4.88;;
21258;SDS011;10787;53.364;-1.480;2022-08-21T05:48:04;9.20;;;4.50;;
21258;SDS011;10787;53.364;-1.480;2022-08-21T05:50:32;13.05;;;5.28;;
21258;SDS011;10787;53.364;-1.480;2022-08-21T05:52:57;12.98;;;4.63;;
21258;SDS011;10787;53.364;-1.480;2022-08-21T05:55:23;11.05;;;4.57;;
21258;SDS011;10787;53.364;-1.480;2022-08-21T05:57:49;12.75;;;4.28;;
21258;SDS011;10787;53.364;-1.480;2022-08-21T06:00:15;9.82;;;4.55;;
21258;SDS011;10787;53.364;-1.480;2022-08-21T06:02:41;9.85;;;4.65;;
21258;SDS011;10787;53.364;-1.480;2022-08-21T06:05:07;12.70;;;4.43;;
21258;SDS011;10787;53.364;-1.480;2022-08-21T06:07:33;9.75;;;4.55;;
21258;SDS011;10787;53.364;-1.480;2022-08-21T06:09:59;13.70;;;4.53;;
21258;SDS011;10787;53.364;-1.480;2022-08-21T06:12:25;11.30;;;4.70;;
21258;SDS011;10787;53.364;-1.480;2022-08-21T06:14:51;15.40;;;5.28;;
21258;SDS011;10787;53.364;-1.480;2022-08-21T06:17:17;8.85;;;4.50;;
21258;SDS011;10787;53.364;-1.480;2022-08-21T06:19:43;6.90;;;4.00;;
21258;SDS011;10787;53.364;-1.480;2022-08-21T06:22:10;11.18;;;4.47;;
21258;SDS011;10787;53.364;-1.480;2022-08-21T06:24:35;10.75;;;4.32;;
21258;SDS011;10787;53.364;-1.480;2022-08-21T06:27:05;10.07;;;4.20;;
21258;SDS011;10787;53.364;-1.480;2022-08-21T06:29:33;8.77;;;4.30;;
21258;SDS011;10787;53.364;-1.480;2022-08-21T06:31:59;10.30;;;4.47;;
21258;SDS011;10787;53.364;-1.480;2022-08-21T06:34:25;8.93;;;4.63;;
21258;SDS011;10787;53.364;-1.480;2022-08-21T06:36:51;9.65;;;4.10;;
21258;SDS011;10787;53.364;-1.480;2022-08-21T06:39:17;11.00;;;4.35;;
21258;SDS011;10787;53.364;-1.480;2022-08-21T06:41:43;12.00;;;4.80;;
21258;SDS011;10787;53.364;-1.480;2022-08-21T06:44:09;8.25;;;4.05;;
21258;SDS011;10787;53.364;-1.480;2022-08-21T06:46:35;7.93;;;4.10;;
21258;SDS011;10787;53.364;-1.480;2022-08-21T06:49:01;10.63;;;3.85;;
21258;SDS011;10787;53.364;-1.480;2022-08-21T06:51:27;8.23;;;4.32;;
21258;SDS011;10787;53.364;-1.480;2022-08-21T06:53:54;10.68;;;4.20;;
21258;SDS011;10787;53.364;-1.480;2022-08-21T06:56:20;10.90;;;4.40;;
21258;SDS011;10787;53.364;-1.480;2022-08-21T06:58:46;8.05;;;4.40;;
21258;SDS011;10787;53.364;-1.480;2022-08-21T07:01:12;8.38;;;4.32;;
21258;SDS011;10787;53.364;-1.480;2022-08-21T07:03:39;7.82;;;3.90;;
21258;SDS011;10787;53.364;-1.480;2022-08-21T07:06:08;9.90;;;4.43;;
21258;SDS011;10787;53.364;-1.480;2022-08-21T07:08:35;10.90;;;4.03;;
21258;SDS011;10787;53.364;-1.480;2022-08-21T07:11:02;11.98;;;4.28;;
21258;SDS011;10787;53.364;-1.480;2022-08-21T07:13:32;11.05;;;4.05;;
21258;SDS011;10787;53.364;-1.480;2022-08-21T07:15:58;9.20;;;4.15;;
21258;SDS011;10787;53.364;-1.480;2022-08-21T07:18:24;11.60;;;4.38;;
21258;SDS011;10787;53.364;-1.480;2022-08-21T07:20:50;7.78;;;4.10;;
21258;SDS011;10787;53.364;-1.480;2022-08-21T07:23:22;7.97;;;4.28;;
21258;SDS011;10787;53.364;-1.480;2022-08-21T07:25:51;13.82;;;4.35;;
21258;SDS011;10787;53.364;-1.480;2022-08-21T07:28:18;9.50;;;4.15;;
21258;SDS011;10787;53.364;-1.480;2022-08-21T07:30:44;8.85;;;4.10;;
21258;SDS011;10787;53.364;-1.480;2022-08-21T07:33:10;9.02;;;4.07;;
21258;SDS011;10787;53.364;-1.480;2022-08-21T07:35:37;10.05;;;3.88;;
21258;SDS011;10787;53.364;-1.480;2022-08-21T07:38:04;11.40;;;4.45;;
21258;SDS011;10787;53.364;-1.480;2022-08-21T07:40:30;10.30;;;4.35;;
21258;SDS011;10787;53.364;-1.480;2022-08-21T07:42:56;12.68;;;4.15;;
21258;SDS011;10787;53.364;-1.480;2022-08-21T07:45:22;10.23;;;3.67;;
21258;SDS011;10787;53.364;-1.480;2022-08-21T07:47:51;11.30;;;3.78;;
21258;SDS011;10787;53.364;-1.480;2022-08-21T07:50:17;8.02;;;3.50;;
21258;SDS011;10787;53.364;-1.480;2022-08-21T07:52:44;6.10;;;3.35;;
21258;SDS011;10787;53.364;-1.480;2022-08-21T07:55:11;8.35;;;3.25;;
21258;SDS011;10787;53.364;-1.480;2022-08-21T07:57:40;9.77;;;3.20;;
21258;SDS011;10787;53.364;-1.480;2022-08-21T08:00:07;9.68;;;2.95;;
21258;SDS011;10787;53.364;-1.480;2022-08-21T08:02:35;6.75;;;3.20;;
21258;SDS011;10787;53.364;-1.480;2022-08-21T08:05:07;9.10;;;3.58;;
21258;SDS011;10787;53.364;-1.480;2022-08-21T08:07:36;7.40;;;3.17;;
21258;SDS011;10787;53.364;-1.480;2022-08-21T08:10:03;8.13;;;3.30;;
21258;SDS011;10787;53.364;-1.480;2022-08-21T08:12:32;11.38;;;3.30;;
21258;SDS011;10787;53.364;-1.480;2022-08-21T08:15:03;6.93;;;3.30;;
21258;SDS011;10787;53.364;-1.480;2022-08-21T08:17:30;7.18;;;3.20;;
21258;SDS011;10787;53.364;-1.480;2022-08-21T08:19:57;7.78;;;3.40;;
21258;SDS011;10787;53.364;-1.480;2022-08-21T08:22:26;8.70;;;3.65;;
21258;SDS011;10787;53.364;-1.480;2022-08-21T08:24:52;5.50;;;3.13;;
21258;SDS011;10787;53.364;-1.480;2022-08-21T08:27:18;8.23;;;3.35;;
21258;SDS011;10787;53.364;-1.480;2022-08-21T08:29:44;6.93;;;3.20;;
21258;SDS011;10787;53.364;-1.480;2022-08-21T08:32:10;8.93;;;3.58;;
21258;SDS011;10787;53.364;-1.480;2022-08-21T08:34:38;7.30;;;3.10;;
21258;SDS011;10787;53.364;-1.480;2022-08-21T08:37:06;8.95;;;2.78;;
21258;SDS011;10787;53.364;-1.480;2022-08-21T08:39:34;7.45;;;3.00;;
21258;SDS011;10787;53.364;-1.480;2022-08-21T08:44:33;5.10;;;2.80;;
21258;SDS011;10787;53.364;-1.480;2022-08-21T08:46:59;6.25;;;2.30;;
21258;SDS011;10787;53.364;-1.480;2022-08-21T08:49:29;5.05;;;2.30;;
21258;SDS011;10787;53.364;-1.480;2022-08-21T08:52:06;5.63;;;2.00;;
21258;SDS011;10787;53.364;-1.480;2022-08-21T08:54:39;4.60;;;2.22;;
21258;SDS011;10787;53.364;-1.480;2022-08-21T08:57:14;6.65;;;2.20;;
21258;SDS011;10787;53.364;-1.480;2022-08-21T08:59:50;4.90;;;2.10;;
21258;SDS011;10787;53.364;-1.480;2022-08-21T09:02:20;4.10;;;1.88;;
21258;SDS011;10787;53.364;-1.480;2022-08-21T09:04:49;7.68;;;2.35;;
21258;SDS011;10787;53.364;-1.480;2022-08-21T09:10:18;6.70;;;2.10;;
21258;SDS011;10787;53.364;-1.480;2022-08-21T09:17:44;4.25;;;1.90;;
21258;SDS011;10787;53.364;-1.480;2022-08-21T09:20:37;5.97;;;1.88;;
21258;SDS011;10787;53.364;-1.480;2022-08-21T09:28:43;8.05;;;1.90;;
21258;SDS011;10787;53.364;-1.480;2022-08-21T09:31:22;4.43;;;1.75;;
21258;SDS011;10787;53.364;-1.480;2022-08-21T09:33:48;3.95;;;1.60;;
21258;SDS011;10787;53.364;-1.480;2022-08-21T09:36:25;4.75;;;1.80;;
21258;SDS011;10787;53.364;-1.480;2022-08-21T09:38:56;6.28;;;1.90;;
21258;SDS011;10787;53.364;-1.480;2022-08-21T09:41:26;5.18;;;1.75;;
21258;SDS011;10787;53.364;-1.480;2022-08-21T09:44:03;4.22;;;1.77;;
21258;SDS011;10787;53.364;-1.480;2022-08-21T09:46:32;5.70;;;2.08;;
21258;SDS011;10787;53.364;-1.480;2022-08-21T09:49:04;5.30;;;1.90;;
21258;SDS011;10787;53.364;-1.480;2022-08-21T09:51:34;6.50;;;2.15;;
21258;SDS011;10787;53.364;-1.480;2022-08-21T09:56:36;4.75;;;2.00;;
21258;SDS011;10787;53.364;-1.480;2022-08-21T09:59:36;6.18;;;2.20;;
21258;SDS011;10787;53.364;-1.480;2022-08-21T10:02:15;4.57;;;1.70;;
21258;SDS011;10787;53.364;-1.480;2022-08-21T10:04:51;4.45;;;2.03;;
21258;SDS011;10787;53.364;-1.480;2022-08-21T10:07:22;5.10;;;1.80;;
21258;SDS011;10787;53.364;-1.480;2022-08-21T10:09:59;6.68;;;2.20;;
21258;SDS011;10787;53.364;-1.480;2022-08-21T10:12:42;7.13;;;2.00;;
21258;SDS011;10787;53.364;-1.480;2022-08-21T10:18:16;6.45;;;1.95;;
21258;SDS011;10787;53.364;-1.480;2022-08-21T10:26:48;6.65;;;1.70;;
21258;SDS011;10787;53.364;-1.480;2022-08-21T10:32:25;4.30;;;1.63;;
21258;SDS011;10787;53.364;-1.480;2022-08-21T10:34:59;8.35;;;2.10;;
21258;SDS011;10787;53.364;-1.480;2022-08-21T10:40:37;6.65;;;1.77;;
21258;SDS011;10787;53.364;-1.480;2022-08-21T10:48:55;6.30;;;1.92;;
21258;SDS011;10787;53.364;-1.480;2022-08-21T10:54:13;4.30;;;1.60;;
21258;SDS011;10787;53.364;-1.480;2022-08-21T10:56:54;5.78;;;1.98;;
21258;SDS011;10787;53.364;-1.480;2022-08-21T11:02:15;7.20;;;1.90;;
21258;SDS011;10787;53.364;-1.480;2022-08-21T11:04:54;4.40;;;1.60;;
21258;SDS011;10787;53.364;-1.480;2022-08-21T11:09:55;6.75;;;2.25;;
21258;SDS011;10787;53.364;-1.480;2022-08-21T11:12:29;4.30;;;1.73;;
21258;SDS011;10787;53.364;-1.480;2022-08-21T11:17:52;4.78;;;1.92;;
21258;SDS011;10787;53.364;-1.480;2022-08-21T11:23:18;6.00;;;1.92;;
21258;SDS011;10787;53.364;-1.480;2022-08-21T11:26:13;5.30;;;2.17;;
21258;SDS011;10787;53.364;-1.480;2022-08-21T11:28:56;5.05;;;2.25;;
21258;SDS011;10787;53.364;-1.480;2022-08-21T11:34:16;4.80;;;2.30;;
21258;SDS011;10787;53.364;-1.480;2022-08-21T11:37:21;8.18;;;2.20;;
21258;SDS011;10787;53.364;-1.480;2022-08-21T11:45:44;5.15;;;2.30;;
21258;SDS011;10787;53.364;-1.480;2022-08-21T11:48:27;6.53;;;2.80;;
21258;SDS011;10787;53.364;-1.480;2022-08-21T11:51:10;6.55;;;2.72;;
21258;SDS011;10787;53.364;-1.480;2022-08-21T11:54:13;4.50;;;2.17;;
21258;SDS011;10787;53.364;-1.480;2022-08-21T11:57:44;4.80;;;2.20;;
21258;SDS011;10787;53.364;-1.480;2022-08-21T12:02:54;5.32;;;2.03;;
21258;SDS011;10787;53.364;-1.480;2022-08-21T12:05:36;3.50;;;1.83;;
21258;SDS011;10787;53.364;-1.480;2022-08-21T12:08:13;3.47;;;1.90;;
21258;SDS011;10787;53.364;-1.480;2022-08-21T12:11:06;3.10;;;1.85;;
21258;SDS011;10787;53.364;-1.480;2022-08-21T12:16:37;5.05;;;2.03;;
21258;SDS011;10787;53.364;-1.480;2022-08-21T12:19:09;7.22;;;2.17;;
21258;SDS011;10787;53.364;-1.480;2022-08-21T12:24:20;5.05;;;2.00;;
21258;SDS011;10787;53.364;-1.480;2022-08-21T12:30:19;5.25;;;2.10;;
21258;SDS011;10787;53.364;-1.480;2022-08-21T12:32:56;5.63;;;1.90;;
21258;SDS011;10787;53.364;-1.480;2022-08-21T12:35:25;7.50;;;2.22;;
21258;SDS011;10787;53.364;-1.480;2022-08-21T12:43:28;3.88;;;1.83;;
21258;SDS011;10787;53.364;-1.480;2022-08-21T12:45:58;4.07;;;1.73;;
21258;SDS011;10787;53.364;-1.480;2022-08-21T12:48:29;5.72;;;2.10;;
21258;SDS011;10787;53.364;-1.480;2022-08-21T12:51:17;4.63;;;1.83;;
21258;SDS011;10787;53.364;-1.480;2022-08-21T12:53:59;6.13;;;1.83;;
21258;SDS011;10787;53.364;-1.480;2022-08-21T12:56:27;4.82;;;1.90;;
21258;SDS011;10787;53.364;-1.480;2022-08-21T12:59:00;4.00;;;1.73;;
21258;SDS011;10787;53.364;-1.480;2022-08-21T13:04:17;5.43;;;1.95;;
21258;SDS011;10787;53.364;-1.480;2022-08-21T13:06:47;4.00;;;1.92;;
21258;SDS011;10787;53.364;-1.480;2022-08-21T13:09:18;4.45;;;1.90;;
21258;SDS011;10787;53.364;-1.480;2022-08-21T13:11:55;5.63;;;1.98;;
21258;SDS011;10787;53.364;-1.480;2022-08-21T13:14:29;3.33;;;1.80;;
21258;SDS011;10787;53.364;-1.480;2022-08-21T13:16:59;4.15;;;1.77;;
21258;SDS011;10787;53.364;-1.480;2022-08-21T13:19:29;3.45;;;1.77;;
21258;SDS011;10787;53.364;-1.480;2022-08-21T13:21:56;4.70;;;1.98;;
21258;SDS011;10787;53.364;-1.480;2022-08-21T13:24:28;3.97;;;1.80;;
21258;SDS011;10787;53.364;-1.480;2022-08-21T13:26:55;4.03;;;1.65;;
21258;SDS011;10787;53.364;-1.480;2022-08-21T13:29:22;2.00;;;1.40;;
21258;SDS011;10787;53.364;-1.480;2022-08-21T13:31:55;2.10;;;1.30;;
21258;SDS011;10787;53.364;-1.480;2022-08-21T13:34:25;4.07;;;1.65;;
21258;SDS011;10787;53.364;-1.480;2022-08-21T13:36:56;4.93;;;2.17;;
21258;SDS011;10787;53.364;-1.480;2022-08-21T13:39:24;3.50;;;1.30;;
21258;SDS011;10787;53.364;-1.480;2022-08-21T13:41:52;2.05;;;1.20;;
21258;SDS011;10787;53.364;-1.480;2022-08-21T13:44:24;3.42;;;1.30;;
21258;SDS011;10787;53.364;-1.480;2022-08-21T13:46:57;3.33;;;1.50;;
21258;SDS011;10787;53.364;-1.480;2022-08-21T13:49:29;2.70;;;1.40;;
21258;SDS011;10787;53.364;-1.480;2022-08-21T13:51:57;2.38;;;1.58;;
21258;SDS011;10787;53.364;-1.480;2022-08-21T13:57:01;3.78;;;1.50;;
21258;SDS011;10787;53.364;-1.480;2022-08-21T13:59:29;4.70;;;1.48;;
21258;SDS011;10787;53.364;-1.480;2022-08-21T14:02:37;2.67;;;1.40;;
21258;SDS011;10787;53.364;-1.480;2022-08-21T14:04:56;2.65;;;1.70;;
21258;SDS011;10787;53.364;-1.480;2022-08-21T14:07:31;2.05;;;1.50;;
21258;SDS011;10787;53.364;-1.480;2022-08-21T14:10:01;2.97;;;1.40;;
21258;SDS011;10787;53.364;-1.480;2022-08-21T14:12:29;2.50;;;1.40;;
21258;SDS011;10787;53.364;-1.480;2022-08-21T14:15:06;3.22;;;1.67;;
21258;SDS011;10787;53.364;-1.480;2022-08-21T14:17:34;3.08;;;1.70;;
21258;SDS011;10787;53.364;-1.480;2022-08-21T14:20:03;3.13;;;1.83;;
21258;SDS011;10787;53.364;-1.480;2022-08-21T14:25:07;3.10;;;1.60;;
21258;SDS011;10787;53.364;-1.480;2022-08-21T14:27:39;3.63;;;1.80;;
21258;SDS011;10787;53.364;-1.480;2022-08-21T14:30:20;2.70;;;1.50;;
21258;SDS011;10787;53.364;-1.480;2022-08-21T14:32:51;4.10;;;1.95;;
21258;SDS011;10787;53.364;-1.480;2022-08-21T14:35:18;3.80;;;1.80;;
21258;SDS011;10787;53.364;-1.480;2022-08-21T14:37:46;2.88;;;1.55;;
21258;SDS011;10787;53.364;-1.480;2022-08-21T14:40:15;3.88;;;1.80;;
21258;SDS011;10787;53.364;-1.480;2022-08-21T14:42:42;2.85;;;1.50;;
21258;SDS011;10787;53.364;-1.480;2022-08-21T14:47:38;2.33;;;1.55;;
21258;SDS011;10787;53.364;-1.480;2022-08-21T14:50:04;3.03;;;1.60;;
21258;SDS011;10787;53.364;-1.480;2022-08-21T14:52:30;3.80;;;1.60;;
21258;SDS011;10787;53.364;-1.480;2022-08-21T14:54:57;2.65;;;1.60;;
21258;SDS011;10787;53.364;-1.480;2022-08-21T14:57:23;2.92;;;1.65;;
21258;SDS011;10787;53.364;-1.480;2022-08-21T14:59:51;3.03;;;1.63;;
21258;SDS011;10787;53.364;-1.480;2022-08-21T15:02:17;1.92;;;1.40;;
21258;SDS011;10787;53.364;-1.480;2022-08-21T15:04:43;3.75;;;1.75;;
21258;SDS011;10787;53.364;-1.480;2022-08-21T15:07:09;4.05;;;1.85;;
21258;SDS011;10787;53.364;-1.480;2022-08-21T15:09:34;3.58;;;1.50;;
21258;SDS011;10787;53.364;-1.480;2022-08-21T15:12:00;3.70;;;1.77;;
21258;SDS011;10787;53.364;-1.480;2022-08-21T15:14:29;3.22;;;1.50;;
21258;SDS011;10787;53.364;-1.480;2022-08-21T15:16:58;2.97;;;1.40;;
21258;SDS011;10787;53.364;-1.480;2022-08-21T15:19:24;2.78;;;1.40;;
21258;SDS011;10787;53.364;-1.480;2022-08-21T15:21:51;3.13;;;1.30;;
21258;SDS011;10787;53.364;-1.480;2022-08-21T15:24:16;3.13;;;1.60;;
21258;SDS011;10787;53.364;-1.480;2022-08-21T15:26:43;3.80;;;1.67;;
21258;SDS011;10787;53.364;-1.480;2022-08-21T15:29:10;3.28;;;1.90;;
21258;SDS011;10787;53.364;-1.480;2022-08-21T15:31:36;2.55;;;1.73;;
21258;SDS011;10787;53.364;-1.480;2022-08-21T15:34:14;4.78;;;1.70;;
21258;SDS011;10787;53.364;-1.480;2022-08-21T15:36:41;2.72;;;1.80;;
21258;SDS011;10787;53.364;-1.480;2022-08-21T15:39:07;3.42;;;1.80;;
21258;SDS011;10787;53.364;-1.480;2022-08-21T15:41:33;2.60;;;1.60;;
21258;SDS011;10787;53.364;-1.480;2022-08-21T15:43:59;3.47;;;1.80;;
21258;SDS011;10787;53.364;-1.480;2022-08-21T15:46:24;3.75;;;1.70;;
21258;SDS011;10787;53.364;-1.480;2022-08-21T15:48:50;3.90;;;2.08;;
21258;SDS011;10787;53.364;-1.480;2022-08-21T15:51:17;2.78;;;1.80;;
21258;SDS011;10787;53.364;-1.480;2022-08-21T15:53:44;4.20;;;2.00;;
21258;SDS011;10787;53.364;-1.480;2022-08-21T15:56:17;4.32;;;1.77;;
21258;SDS011;10787;53.364;-1.480;2022-08-21T15:58:49;6.47;;;3.22;;
21258;SDS011;10787;53.364;-1.480;2022-08-21T16:01:19;3.10;;;2.00;;
21258;SDS011;10787;53.364;-1.480;2022-08-21T16:03:48;3.90;;;2.13;;
21258;SDS011;10787;53.364;-1.480;2022-08-21T16:06:15;3.80;;;2.10;;
21258;SDS011;10787;53.364;-1.480;2022-08-21T16:08:41;4.15;;;2.10;;
21258;SDS011;10787;53.364;-1.480;2022-08-21T16:11:07;3.78;;;1.95;;
21258;SDS011;10787;53.364;-1.480;2022-08-21T16:13:35;3.88;;;1.92;;
21258;SDS011;10787;53.364;-1.480;2022-08-21T16:16:04;3.10;;;1.88;;